sensor_id;sensor_type;location;lat;lon;timestamp;pressure;altitude;pressure_sealevel;temperature;humidity
5755;BME280;2902;42.130;24.732;2022-12-18T00:02:12;100082.66;;;11.23;100.00
5755;BME280;2902;42.130;24.732;2022-12-18T00:04:38;100083.94;;;11.27;100.00
5755;BME280;2902;42.130;24.732;2022-12-18T00:07:05;100090.53;;;11.31;100.00
5755;BME280;2902;42.130;24.732;2022-12-18T00:09:32;100094.22;;;11.30;100.00
5755;BME280;2902;42.130;24.732;2022-12-18T00:12:00;100106.22;;;11.26;100.00
5755;BME280;2902;42.130;24.732;2022-12-18T00:14:27;100101.94;;;11.25;100.00
5755;BME280;2902;42.130;24.732;2022-12-18T00:16:53;100124.22;;;11.24;100.00
5755;BME280;2902;42.130;24.732;2022-12-18T00:19:20;100137.50;;;11.24;100.00
5755;BME280;2902;42.130;24.732;2022-12-18T00:21:47;100136.59;;;11.17;100.00
5755;BME280;2902;42.130;24.732;2022-12-18T00:24:14;100135.66;;;11.10;100.00
5755;BME280;2902;42.130;24.732;2022-12-18T00:26:40;100138.97;;;11.12;100.00
5755;BME280;2902;42.130;24.732;2022-12-18T00:29:12;100136.50;;;11.11;100.00
5755;BME280;2902;42.130;24.732;2022-12-18T00:31:40;100136.94;;;11.14;100.00
5755;BME280;2902;42.130;24.732;2022-12-18T00:34:09;100136.31;;;11.12;100.00
5755;BME280;2902;42.130;24.732;2022-12-18T00:36:36;100146.78;;;11.14;100.00
5755;BME280;2902;42.130;24.732;2022-12-18T00:39:04;100145.50;;;11.10;100.00
5755;BME280;2902;42.130;24.732;2022-12-18T00:41:31;100156.84;;;11.03;100.00
5755;BME280;2902;42.130;24.732;2022-12-18T00:44:18;100166.56;;;10.96;100.00
5755;BME280;2902;42.130;24.732;2022-12-18T00:46:45;100158.47;;;10.90;100.00
5755;BME280;2902;42.130;24.732;2022-12-18T00:49:13;100173.06;;;10.94;100.00
5755;BME280;2902;42.130;24.732;2022-12-18T00:51:40;100171.06;;;10.96;100.00
5755;BME280;2902;42.130;24.732;2022-12-18T00:54:07;100181.69;;;10.96;100.00
5755;BME280;2902;42.130;24.732;2022-12-18T00:56:35;100187.63;;;10.98;100.00
5755;BME280;2902;42.130;24.732;2022-12-18T00:59:02;100183.34;;;10.97;100.00
5755;BME280;2902;42.130;24.732;2022-12-18T01:01:30;100181.69;;;10.96;100.00
5755;BME280;2902;42.130;24.732;2022-12-18T01:03:57;100171.06;;;10.96;100.00
5755;BME280;2902;42.130;24.732;2022-12-18T01:06:24;100167.38;;;10.97;100.00
5755;BME280;2902;42.130;24.732;2022-12-18T01:08:51;100171.06;;;10.96;100.00
5755;BME280;2902;42.130;24.732;2022-12-18T01:11:19;100177.91;;;10.90;100.00
5755;BME280;2902;42.130;24.732;2022-12-18T01:13:46;100174.81;;;10.87;100.00
5755;BME280;2902;42.130;24.732;2022-12-18T01:16:15;100175.34;;;10.82;100.00
5755;BME280;2902;42.130;24.732;2022-12-18T01:18:43;100170.97;;;10.89;100.00
5755;BME280;2902;42.130;24.732;2022-12-18T01:21:12;100173.72;;;10.96;100.00
5755;BME280;2902;42.130;24.732;2022-12-18T01:23:39;100168.94;;;10.91;100.00
5755;BME280;2902;42.130;24.732;2022-12-18T01:26:07;100172.16;;;10.87;100.00
5755;BME280;2902;42.130;24.732;2022-12-18T01:28:34;100172.50;;;10.84;100.00
5755;BME280;2902;42.130;24.732;2022-12-18T01:31:12;100170.56;;;10.78;100.00
5755;BME280;2902;42.130;24.732;2022-12-18T01:33:40;100160.31;;;10.75;100.00
5755;BME280;2902;42.130;24.732;2022-12-18T01:36:13;100165.44;;;10.76;100.00
5755;BME280;2902;42.130;24.732;2022-12-18T01:38:40;100162.59;;;10.78;100.00
5755;BME280;2902;42.130;24.732;2022-12-18T01:41:08;100165.91;;;10.80;100.00
5755;BME280;2902;42.130;24.732;2022-12-18T01:43:46;100159.41;;;10.82;100.00
5755;BME280;2902;42.130;24.732;2022-12-18T01:46:14;100167.53;;;10.81;100.00
5755;BME280;2902;42.130;24.732;2022-12-18T01:48:41;100174.50;;;10.82;100.00
5755;BME280;2902;42.130;24.732;2022-12-18T01:51:11;100172.69;;;10.82;100.00
5755;BME280;2902;42.130;24.732;2022-12-18T01:53:40;100177.38;;;10.80;100.00
5755;BME280;2902;42.130;24.732;2022-12-18T01:56:08;100170.19;;;10.81;100.00
5755;BME280;2902;42.130;24.732;2022-12-18T01:58:43;100162.78;;;10.76;100.00
5755;BME280;2902;42.130;24.732;2022-12-18T02:01:12;100167.28;;;10.76;100.00
5755;BME280;2902;42.130;24.732;2022-12-18T02:03:41;100171.13;;;10.73;100.00
5755;BME280;2902;42.130;24.732;2022-12-18T02:06:14;100177.22;;;10.74;100.00
5755;BME280;2902;42.130;24.732;2022-12-18T02:08:50;100181.19;;;10.78;100.00
5755;BME280;2902;42.130;24.732;2022-12-18T02:11:30;100176.78;;;10.70;100.00
5755;BME280;2902;42.130;24.732;2022-12-18T02:14:03;100185.88;;;10.76;100.00
5755;BME280;2902;42.130;24.732;2022-12-18T02:16:39;100191.28;;;10.82;100.00
5755;BME280;2902;42.130;24.732;2022-12-18T02:19:17;100186.44;;;10.86;100.00
5755;BME280;2902;42.130;24.732;2022-12-18T02:21:54;100195.69;;;10.90;100.00
5755;BME280;2902;42.130;24.732;2022-12-18T02:24:29;100188.56;;;10.90;100.00
5755;BME280;2902;42.130;24.732;2022-12-18T02:27:03;100199.91;;;10.84;100.00
5755;BME280;2902;42.130;24.732;2022-12-18T02:29:35;100204.03;;;10.87;100.00
5755;BME280;2902;42.130;24.732;2022-12-18T02:32:08;100193.03;;;10.90;100.00
5755;BME280;2902;42.130;24.732;2022-12-18T02:34:38;100200.47;;;10.94;100.00
5755;BME280;2902;42.130;24.732;2022-12-18T02:37:08;100200.94;;;10.98;100.00
5755;BME280;2902;42.130;24.732;2022-12-18T02:39:39;100193.44;;;11.02;100.00
5755;BME280;2902;42.130;24.732;2022-12-18T02:42:10;100187.56;;;11.06;100.00
5755;BME280;2902;42.130;24.732;2022-12-18T02:44:42;100197.19;;;11.07;100.00
5755;BME280;2902;42.130;24.732;2022-12-18T02:47:10;100189.84;;;11.09;100.00
5755;BME280;2902;42.130;24.732;2022-12-18T02:49:46;100182.50;;;11.11;100.00
5755;BME280;2902;42.130;24.732;2022-12-18T02:52:24;100185.38;;;11.10;100.00
5755;BME280;2902;42.130;24.732;2022-12-18T02:54:57;100183.53;;;11.10;100.00
5755;BME280;2902;42.130;24.732;2022-12-18T02:57:34;100190.88;;;11.08;100.00
5755;BME280;2902;42.130;24.732;2022-12-18T03:00:05;100192.50;;;11.09;100.00
5755;BME280;2902;42.130;24.732;2022-12-18T03:02:37;100190.69;;;11.10;100.00
5755;BME280;2902;42.130;24.732;2022-12-18T03:05:10;100195.44;;;11.14;100.00
5755;BME280;2902;42.130;24.732;2022-12-18T03:07:42;100201.44;;;11.16;100.00
5755;BME280;2902;42.130;24.732;2022-12-18T03:10:14;100202.06;;;11.18;100.00
5755;BME280;2902;42.130;24.732;2022-12-18T03:12:46;100195.72;;;11.19;100.00
5755;BME280;2902;42.130;24.732;2022-12-18T03:15:18;100202.06;;;11.18;100.00
5755;BME280;2902;42.130;24.732;2022-12-18T03:17:52;100205.56;;;11.19;100.00
5755;BME280;2902;42.130;24.732;2022-12-18T03:20:22;100206.91;;;11.15;100.00
5755;BME280;2902;42.130;24.732;2022-12-18T03:22:53;100209.41;;;11.16;100.00
5755;BME280;2902;42.130;24.732;2022-12-18T03:25:25;100211.03;;;11.17;100.00
5755;BME280;2902;42.130;24.732;2022-12-18T03:27:56;100215.69;;;11.15;100.00
5755;BME280;2902;42.130;24.732;2022-12-18T03:30:26;100216.09;;;11.12;100.00
5755;BME280;2902;42.130;24.732;2022-12-18T03:33:00;100220.13;;;11.08;100.00
5755;BME280;2902;42.130;24.732;2022-12-18T03:35:31;100221.31;;;11.06;100.00
5755;BME280;2902;42.130;24.732;2022-12-18T03:37:58;100219.91;;;10.95;100.00
5755;BME280;2902;42.130;24.732;2022-12-18T03:40:29;100227.88;;;10.95;100.00
5755;BME280;2902;42.130;24.732;2022-12-18T03:43:08;100229.53;;;10.96;100.00
5755;BME280;2902;42.130;24.732;2022-12-18T03:45:39;100239.16;;;10.97;100.00
5755;BME280;2902;42.130;24.732;2022-12-18T03:48:12;100246.69;;;10.93;100.00
5755;BME280;2902;42.130;24.732;2022-12-18T03:50:46;100247.13;;;10.97;100.00
5755;BME280;2902;42.130;24.732;2022-12-18T03:53:25;100259.41;;;10.98;100.00
5755;BME280;2902;42.130;24.732;2022-12-18T03:55:55;100263.00;;;10.68;100.00
5755;BME280;2902;42.130;24.732;2022-12-18T03:58:25;100262.09;;;10.53;100.00
5755;BME280;2902;42.130;24.732;2022-12-18T04:00:56;100265.47;;;10.47;100.00
5755;BME280;2902;42.130;24.732;2022-12-18T04:03:24;100265.72;;;10.60;100.00
5755;BME280;2902;42.130;24.732;2022-12-18T04:05:52;100264.28;;;10.49;100.00
5755;BME280;2902;42.130;24.732;2022-12-18T04:08:21;100267.59;;;10.51;100.00
5755;BME280;2902;42.130;24.732;2022-12-18T04:10:49;100271.75;;;10.54;100.00
5755;BME280;2902;42.130;24.732;2022-12-18T04:13:21;100280.88;;;10.51;100.00
5755;BME280;2902;42.130;24.732;2022-12-18T04:15:49;100285.84;;;10.54;100.00
5755;BME280;2902;42.130;24.732;2022-12-18T04:18:16;100278.41;;;10.50;100.00
5755;BME280;2902;42.130;24.732;2022-12-18T04:20:43;100279.72;;;10.54;100.00
5755;BME280;2902;42.130;24.732;2022-12-18T04:23:09;100275.75;;;10.50;100.00
5755;BME280;2902;42.130;24.732;2022-12-18T04:25:36;100280.00;;;10.59;100.00
5755;BME280;2902;42.130;24.732;2022-12-18T04:28:03;100284.00;;;10.55;100.00
5755;BME280;2902;42.130;24.732;2022-12-18T04:30:30;100291.63;;;10.58;100.00
5755;BME280;2902;42.130;24.732;2022-12-18T04:32:58;100289.66;;;10.52;100.00
5755;BME280;2902;42.130;24.732;2022-12-18T04:35:25;100294.97;;;10.52;100.00
5755;BME280;2902;42.130;24.732;2022-12-18T04:37:52;100290.00;;;10.49;100.00
5755;BME280;2902;42.130;24.732;2022-12-18T04:40:18;100298.41;;;10.38;100.00
5755;BME280;2902;42.130;24.732;2022-12-18T04:42:45;100285.63;;;10.33;100.00
5755;BME280;2902;42.130;24.732;2022-12-18T04:45:12;100292.44;;;10.36;100.00
5755;BME280;2902;42.130;24.732;2022-12-18T04:47:38;100307.00;;;10.40;100.00
5755;BME280;2902;42.130;24.732;2022-12-18T04:50:07;100309.44;;;10.19;100.00
5755;BME280;2902;42.130;24.732;2022-12-18T04:52:34;100310.97;;;10.13;100.00
5755;BME280;2902;42.130;24.732;2022-12-18T04:55:01;100318.97;;;10.05;100.00
5755;BME280;2902;42.130;24.732;2022-12-18T04:57:28;100325.75;;;10.00;100.00
5755;BME280;2902;42.130;24.732;2022-12-18T04:59:55;100339.56;;;9.95;100.00
5755;BME280;2902;42.130;24.732;2022-12-18T05:02:21;100340.09;;;9.83;100.00
5755;BME280;2902;42.130;24.732;2022-12-18T05:04:48;100337.44;;;9.83;100.00
5755;BME280;2902;42.130;24.732;2022-12-18T05:07:16;100350.19;;;9.87;100.00
5755;BME280;2902;42.130;24.732;2022-12-18T05:09:43;100336.13;;;9.79;100.00
5755;BME280;2902;42.130;24.732;2022-12-18T05:12:09;100346.09;;;9.77;100.00
5755;BME280;2902;42.130;24.732;2022-12-18T05:14:36;100350.69;;;9.83;100.00
5755;BME280;2902;42.130;24.732;2022-12-18T05:17:03;100355.34;;;9.89;100.00
5755;BME280;2902;42.130;24.732;2022-12-18T05:19:30;100364.94;;;9.98;100.00
5755;BME280;2902;42.130;24.732;2022-12-18T05:21:56;100363.44;;;9.95;100.00
5755;BME280;2902;42.130;24.732;2022-12-18T05:24:25;100371.41;;;9.95;100.00
5755;BME280;2902;42.130;24.732;2022-12-18T05:26:51;100372.72;;;10.07;100.00
5755;BME280;2902;42.130;24.732;2022-12-18T05:29:18;100377.19;;;10.07;100.00
5755;BME280;2902;42.130;24.732;2022-12-18T05:31:45;100385.16;;;10.07;100.00
5755;BME280;2902;42.130;24.732;2022-12-18T05:34:12;100396.06;;;10.04;100.00
5755;BME280;2902;42.130;24.732;2022-12-18T05:36:38;100399.72;;;10.03;100.00
5755;BME280;2902;42.130;24.732;2022-12-18T05:39:05;100395.13;;;10.13;100.00
5755;BME280;2902;42.130;24.732;2022-12-18T05:41:33;100396.63;;;10.07;100.00
5755;BME280;2902;42.130;24.732;2022-12-18T05:44:00;100403.91;;;10.05;100.00
5755;BME280;2902;42.130;24.732;2022-12-18T05:46:27;100411.53;;;10.08;100.00
5755;BME280;2902;42.130;24.732;2022-12-18T05:48:55;100416.34;;;10.13;100.00
5755;BME280;2902;42.130;24.732;2022-12-18T05:51:22;100417.66;;;10.17;100.00
5755;BME280;2902;42.130;24.732;2022-12-18T05:53:49;100420.16;;;10.02;100.00
5755;BME280;2902;42.130;24.732;2022-12-18T05:56:17;100426.97;;;9.97;100.00
5755;BME280;2902;42.130;24.732;2022-12-18T05:58:46;100428.28;;;10.01;100.00
5755;BME280;2902;42.130;24.732;2022-12-18T06:01:15;100435.25;;;10.02;100.00
5755;BME280;2902;42.130;24.732;2022-12-18T06:03:43;100440.88;;;9.99;100.00
5755;BME280;2902;42.130;24.732;2022-12-18T06:06:14;100436.09;;;9.94;100.00
5755;BME280;2902;42.130;24.732;2022-12-18T06:08:41;100434.25;;;9.95;100.00
5755;BME280;2902;42.130;24.732;2022-12-18T06:11:08;100440.56;;;10.02;100.00
5755;BME280;2902;42.130;24.732;2022-12-18T06:13:34;100440.72;;;10.08;100.00
5755;BME280;2902;42.130;24.732;2022-12-18T06:16:03;100446.19;;;10.15;100.00
5755;BME280;2902;42.130;24.732;2022-12-18T06:18:30;100449.53;;;10.17;100.00
5755;BME280;2902;42.130;24.732;2022-12-18T06:20:58;100454.16;;;10.15;100.00
5755;BME280;2902;42.130;24.732;2022-12-18T06:23:26;100446.22;;;10.07;100.00
5755;BME280;2902;42.130;24.732;2022-12-18T06:25:53;100460.47;;;10.14;100.00
5755;BME280;2902;42.130;24.732;2022-12-18T06:28:20;100459.44;;;10.23;100.00
5755;BME280;2902;42.130;24.732;2022-12-18T06:30:47;100458.81;;;10.13;100.00
5755;BME280;2902;42.130;24.732;2022-12-18T06:33:16;100473.06;;;10.12;100.00
5755;BME280;2902;42.130;24.732;2022-12-18T06:35:42;100477.19;;;10.30;100.00
5755;BME280;2902;42.130;24.732;2022-12-18T06:38:09;100483.00;;;10.34;100.00
5755;BME280;2902;42.130;24.732;2022-12-18T06:40:37;100486.28;;;10.36;100.00
5755;BME280;2902;42.130;24.732;2022-12-18T06:43:04;100492.59;;;10.43;100.00
5755;BME280;2902;42.130;24.732;2022-12-18T06:45:31;100498.53;;;10.45;100.00
5755;BME280;2902;42.130;24.732;2022-12-18T06:47:57;100501.06;;;10.38;100.00
5755;BME280;2902;42.130;24.732;2022-12-18T06:50:25;100509.19;;;10.37;100.00
5755;BME280;2902;42.130;24.732;2022-12-18T06:52:52;100509.56;;;10.34;100.00
5755;BME280;2902;42.130;24.732;2022-12-18T06:55:19;100508.72;;;10.33;99.52
5755;BME280;2902;42.130;24.732;2022-12-18T06:57:46;100519.47;;;10.40;99.37
5755;BME280;2902;42.130;24.732;2022-12-18T07:00:13;100523.75;;;10.49;99.18
5755;BME280;2902;42.130;24.732;2022-12-18T07:02:40;100525.78;;;10.47;98.88
5755;BME280;2902;42.130;24.732;2022-12-18T07:05:07;100529.78;;;10.43;99.40
5755;BME280;2902;42.130;24.732;2022-12-18T07:07:35;100528.28;;;10.48;99.05
5755;BME280;2902;42.130;24.732;2022-12-18T07:10:02;100527.44;;;10.48;99.10
5755;BME280;2902;42.130;24.732;2022-12-18T07:12:29;100535.69;;;10.61;99.27
5755;BME280;2902;42.130;24.732;2022-12-18T07:14:55;100543.31;;;10.64;97.54
5755;BME280;2902;42.130;24.732;2022-12-18T07:17:22;100544.00;;;10.66;97.22
5755;BME280;2902;42.130;24.732;2022-12-18T07:19:49;100540.84;;;10.62;96.05
5755;BME280;2902;42.130;24.732;2022-12-18T07:22:16;100547.00;;;10.63;95.79
5755;BME280;2902;42.130;24.732;2022-12-18T07:24:44;100544.50;;;10.61;96.00
5755;BME280;2902;42.130;24.732;2022-12-18T07:27:14;100549.97;;;10.68;95.42
5755;BME280;2902;42.130;24.732;2022-12-18T07:29:40;100556.59;;;10.72;94.97
5755;BME280;2902;42.130;24.732;2022-12-18T07:32:07;100556.91;;;10.69;94.79
5755;BME280;2902;42.130;24.732;2022-12-18T07:34:34;100565.91;;;10.68;94.76
5755;BME280;2902;42.130;24.732;2022-12-18T07:37:01;100560.44;;;10.61;94.19
5755;BME280;2902;42.130;24.732;2022-12-18T07:39:28;100567.56;;;10.61;93.70
5755;BME280;2902;42.130;24.732;2022-12-18T07:41:56;100566.91;;;10.67;93.88
5755;BME280;2902;42.130;24.732;2022-12-18T07:44:40;100571.22;;;10.68;93.14
5755;BME280;2902;42.130;24.732;2022-12-18T07:47:07;100565.78;;;10.53;92.64
5755;BME280;2902;42.130;24.732;2022-12-18T07:49:33;100569.94;;;10.48;93.00
5755;BME280;2902;42.130;24.732;2022-12-18T07:52:00;100579.91;;;10.38;93.13
5755;BME280;2902;42.130;24.732;2022-12-18T07:54:27;100571.59;;;10.33;93.43
5755;BME280;2902;42.130;24.732;2022-12-18T07:56:54;100578.25;;;10.29;92.77
5755;BME280;2902;42.130;24.732;2022-12-18T07:59:22;100589.69;;;10.37;92.34
5755;BME280;2902;42.130;24.732;2022-12-18T08:01:48;100587.38;;;10.42;92.41
5755;BME280;2902;42.130;24.732;2022-12-18T08:04:15;100591.03;;;10.41;92.09
5755;BME280;2902;42.130;24.732;2022-12-18T08:06:42;100598.81;;;10.51;91.92
5755;BME280;2902;42.130;24.732;2022-12-18T08:09:09;100612.44;;;10.48;91.89
5755;BME280;2902;42.130;24.732;2022-12-18T08:11:36;100591.84;;;10.58;92.36
5755;BME280;2902;42.130;24.732;2022-12-18T08:14:03;100610.75;;;10.71;91.43
5755;BME280;2902;42.130;24.732;2022-12-18T08:16:31;100613.41;;;10.71;91.48
5755;BME280;2902;42.130;24.732;2022-12-18T08:18:57;100613.03;;;10.82;91.10
5755;BME280;2902;42.130;24.732;2022-12-18T08:21:26;100625.97;;;10.85;89.57
5755;BME280;2902;42.130;24.732;2022-12-18T08:23:55;100628.94;;;10.90;89.70
5755;BME280;2902;42.130;24.732;2022-12-18T08:26:23;100626.50;;;10.88;89.50
5755;BME280;2902;42.130;24.732;2022-12-18T08:28:50;100634.41;;;10.96;89.13
5755;BME280;2902;42.130;24.732;2022-12-18T08:31:18;100632.09;;;11.02;88.96
5755;BME280;2902;42.130;24.732;2022-12-18T08:33:48;100636.56;;;11.01;88.85
5755;BME280;2902;42.130;24.732;2022-12-18T08:36:15;100622.94;;;11.04;88.53
5755;BME280;2902;42.130;24.732;2022-12-18T08:38:42;100626.25;;;10.98;88.38
5755;BME280;2902;42.130;24.732;2022-12-18T08:41:10;100632.25;;;11.08;88.10
5755;BME280;2902;42.130;24.732;2022-12-18T08:43:38;100630.38;;;11.08;87.87
5755;BME280;2902;42.130;24.732;2022-12-18T08:46:24;100617.31;;;10.99;88.02
5755;BME280;2902;42.130;24.732;2022-12-18T08:48:53;100627.25;;;11.05;87.80
5755;BME280;2902;42.130;24.732;2022-12-18T08:51:20;100613.94;;;11.13;87.23
5755;BME280;2902;42.130;24.732;2022-12-18T08:53:47;100619.59;;;11.02;87.33
5755;BME280;2902;42.130;24.732;2022-12-18T08:56:14;100618.63;;;11.03;86.81
5755;BME280;2902;42.130;24.732;2022-12-18T08:58:41;100615.50;;;10.91;87.40
5755;BME280;2902;42.130;24.732;2022-12-18T09:01:11;100613.66;;;11.00;87.75
5755;BME280;2902;42.130;24.732;2022-12-18T09:03:39;100602.69;;;11.03;87.71
5755;BME280;2902;42.130;24.732;2022-12-18T09:06:07;100605.13;;;11.04;87.63
5755;BME280;2902;42.130;24.732;2022-12-18T09:08:34;100608.59;;;11.13;87.33
5755;BME280;2902;42.130;24.732;2022-12-18T09:11:01;100614.63;;;11.07;87.77
5755;BME280;2902;42.130;24.732;2022-12-18T09:13:28;100620.09;;;11.14;86.93
5755;BME280;2902;42.130;24.732;2022-12-18T09:15:55;100621.16;;;11.27;86.73
5755;BME280;2902;42.130;24.732;2022-12-18T09:18:23;100608.53;;;11.29;86.34
5755;BME280;2902;42.130;24.732;2022-12-18T09:20:50;100618.84;;;11.32;85.79
5755;BME280;2902;42.130;24.732;2022-12-18T09:23:19;100616.34;;;11.31;84.71
5755;BME280;2902;42.130;24.732;2022-12-18T09:25:46;100621.16;;;11.27;85.31
5755;BME280;2902;42.130;24.732;2022-12-18T09:28:15;100619.53;;;11.26;84.83
5755;BME280;2902;42.130;24.732;2022-12-18T09:30:45;100622.19;;;11.26;84.90
5755;BME280;2902;42.130;24.732;2022-12-18T09:33:12;100625.19;;;11.23;84.88
5755;BME280;2902;42.130;24.732;2022-12-18T09:35:40;100620.84;;;11.30;85.20
5755;BME280;2902;42.130;24.732;2022-12-18T09:38:08;100623.47;;;11.38;84.50
5755;BME280;2902;42.130;24.732;2022-12-18T09:40:42;100620.63;;;11.40;84.55
5755;BME280;2902;42.130;24.732;2022-12-18T09:43:15;100625.44;;;11.44;84.73
5755;BME280;2902;42.130;24.732;2022-12-18T09:45:46;100626.91;;;11.47;84.58
5755;BME280;2902;42.130;24.732;2022-12-18T09:48:19;100619.63;;;11.41;84.66
5755;BME280;2902;42.130;24.732;2022-12-18T09:50:48;100616.97;;;11.41;84.09
5755;BME280;2902;42.130;24.732;2022-12-18T09:53:20;100621.84;;;11.29;84.37
5755;BME280;2902;42.130;24.732;2022-12-18T09:55:51;100631.16;;;11.25;84.57
5755;BME280;2902;42.130;24.732;2022-12-18T09:58:24;100628.84;;;11.22;85.11
5755;BME280;2902;42.130;24.732;2022-12-18T10:00:54;100626.16;;;11.30;84.95
5755;BME280;2902;42.130;24.732;2022-12-18T10:03:21;100623.16;;;11.33;85.42
5755;BME280;2902;42.130;24.732;2022-12-18T10:06:02;100617.13;;;11.39;85.15
5755;BME280;2902;42.130;24.732;2022-12-18T10:08:37;100620.50;;;11.33;85.24
5755;BME280;2902;42.130;24.732;2022-12-18T10:11:22;100627.47;;;11.34;85.27
5755;BME280;2902;42.130;24.732;2022-12-18T10:13:53;100623.00;;;11.35;84.18
5755;BME280;2902;42.130;24.732;2022-12-18T10:16:29;100625.50;;;11.28;84.23
5755;BME280;2902;42.130;24.732;2022-12-18T10:19:11;100615.25;;;11.17;84.31
5755;BME280;2902;42.130;24.732;2022-12-18T10:21:49;100620.22;;;11.20;84.70
5755;BME280;2902;42.130;24.732;2022-12-18T10:24:22;100619.34;;;11.28;84.33
5755;BME280;2902;42.130;24.732;2022-12-18T10:26:53;100628.50;;;11.25;84.16
5755;BME280;2902;42.130;24.732;2022-12-18T10:29:22;100626.84;;;11.24;84.19
5755;BME280;2902;42.130;24.732;2022-12-18T10:31:51;100619.25;;;11.13;84.37
5755;BME280;2902;42.130;24.732;2022-12-18T10:34:17;100617.56;;;11.20;85.09
5755;BME280;2902;42.130;24.732;2022-12-18T10:36:44;100620.56;;;11.17;85.49
5755;BME280;2902;42.130;24.732;2022-12-18T10:39:15;100621.22;;;11.11;86.25
5755;BME280;2902;42.130;24.732;2022-12-18T10:41:42;100624.41;;;11.07;85.76
5755;BME280;2902;42.130;24.732;2022-12-18T10:44:15;100625.25;;;11.07;84.88
5755;BME280;2902;42.130;24.732;2022-12-18T10:46:44;100630.59;;;11.07;84.72
5755;BME280;2902;42.130;24.732;2022-12-18T10:49:23;100640.50;;;11.21;84.92
5755;BME280;2902;42.130;24.732;2022-12-18T10:51:51;100636.81;;;11.22;84.69
5755;BME280;2902;42.130;24.732;2022-12-18T10:54:21;100639.16;;;11.25;84.94
5755;BME280;2902;42.130;24.732;2022-12-18T10:56:48;100641.34;;;11.14;85.61
5755;BME280;2902;42.130;24.732;2022-12-18T10:59:18;100634.53;;;11.11;85.83
5755;BME280;2902;42.130;24.732;2022-12-18T11:01:46;100647.78;;;11.19;86.60
5755;BME280;2902;42.130;24.732;2022-12-18T11:04:17;100655.09;;;11.25;86.42
5755;BME280;2902;42.130;24.732;2022-12-18T11:06:54;100651.16;;;11.13;87.05
5755;BME280;2902;42.130;24.732;2022-12-18T11:09:22;100653.31;;;11.18;87.81
5755;BME280;2902;42.130;24.732;2022-12-18T11:11:50;100659.94;;;11.22;88.01
5755;BME280;2902;42.130;24.732;2022-12-18T11:14:23;100661.13;;;11.11;87.94
5755;BME280;2902;42.130;24.732;2022-12-18T11:16:51;100670.28;;;11.08;87.88
5755;BME280;2902;42.130;24.732;2022-12-18T11:19:28;100677.94;;;11.03;87.45
5755;BME280;2902;42.130;24.732;2022-12-18T11:21:55;100679.81;;;10.95;87.50
5755;BME280;2902;42.130;24.732;2022-12-18T11:24:26;100674.97;;;10.98;88.16
5755;BME280;2902;42.130;24.732;2022-12-18T11:26:54;100672.31;;;10.90;88.47
5755;BME280;2902;42.130;24.732;2022-12-18T11:29:28;100665.19;;;10.91;88.90
5755;BME280;2902;42.130;24.732;2022-12-18T11:32:30;100673.16;;;10.91;89.17
5755;BME280;2902;42.130;24.732;2022-12-18T11:35:03;100670.00;;;10.87;89.41
5755;BME280;2902;42.130;24.732;2022-12-18T11:37:34;100673.97;;;10.83;89.58
5755;BME280;2902;42.130;24.732;2022-12-18T11:40:05;100670.84;;;10.80;89.56
5755;BME280;2902;42.130;24.732;2022-12-18T11:42:37;100675.31;;;10.87;89.24
5755;BME280;2902;42.130;24.732;2022-12-18T11:45:21;100670.50;;;10.91;88.82
5755;BME280;2902;42.130;24.732;2022-12-18T11:47:56;100676.63;;;10.91;88.69
5755;BME280;2902;42.130;24.732;2022-12-18T11:50:25;100677.97;;;10.87;87.26
5755;BME280;2902;42.130;24.732;2022-12-18T11:52:52;100672.81;;;10.86;86.73
5755;BME280;2902;42.130;24.732;2022-12-18T11:55:28;100676.66;;;10.83;85.71
5755;BME280;2902;42.130;24.732;2022-12-18T11:58:03;100673.97;;;10.91;85.02
5755;BME280;2902;42.130;24.732;2022-12-18T12:00:36;100681.78;;;10.93;84.33
5755;BME280;2902;42.130;24.732;2022-12-18T12:03:27;100679.97;;;10.85;84.43
5755;BME280;2902;42.130;24.732;2022-12-18T12:06:08;100681.94;;;10.91;84.07
5755;BME280;2902;42.130;24.732;2022-12-18T12:08:53;100678.47;;;10.91;83.18
5755;BME280;2902;42.130;24.732;2022-12-18T12:11:31;100679.44;;;10.98;83.16
5755;BME280;2902;42.130;24.732;2022-12-18T12:14:12;100681.13;;;10.99;83.11
5755;BME280;2902;42.130;24.732;2022-12-18T12:16:50;100683.41;;;11.10;82.99
5755;BME280;2902;42.130;24.732;2022-12-18T12:19:28;100683.72;;;11.15;82.43
5755;BME280;2902;42.130;24.732;2022-12-18T12:22:05;100688.06;;;11.16;81.87
5755;BME280;2902;42.130;24.732;2022-12-18T12:24:44;100686.03;;;11.18;81.59
5755;BME280;2902;42.130;24.732;2022-12-18T12:27:20;100691.06;;;11.05;81.36
5755;BME280;2902;42.130;24.732;2022-12-18T12:29:58;100683.59;;;11.00;82.29
5755;BME280;2902;42.130;24.732;2022-12-18T12:32:40;100695.69;;;11.11;81.68
5755;BME280;2902;42.130;24.732;2022-12-18T12:35:18;100697.84;;;11.16;81.53
5755;BME280;2902;42.130;24.732;2022-12-18T12:37:53;100704.19;;;11.07;81.38
5755;BME280;2902;42.130;24.732;2022-12-18T12:40:28;100702.84;;;11.11;81.53
5755;BME280;2902;42.130;24.732;2022-12-18T12:42:59;100707.31;;;11.18;81.32
5755;BME280;2902;42.130;24.732;2022-12-18T12:45:41;100722.28;;;11.11;80.43
5755;BME280;2902;42.130;24.732;2022-12-18T12:48:17;100712.00;;;11.08;80.16
5755;BME280;2902;42.130;24.732;2022-12-18T12:50:46;100722.28;;;11.11;79.86
5755;BME280;2902;42.130;24.732;2022-12-18T12:53:21;100730.25;;;11.19;79.44
5755;BME280;2902;42.130;24.732;2022-12-18T12:55:50;100730.31;;;11.03;79.75
5755;BME280;2902;42.130;24.732;2022-12-18T12:58:25;100742.59;;;11.04;79.85
5755;BME280;2902;42.130;24.732;2022-12-18T13:01:04;100747.06;;;11.03;79.53
5755;BME280;2902;42.130;24.732;2022-12-18T13:03:42;100756.38;;;10.99;79.58
5755;BME280;2902;42.130;24.732;2022-12-18T13:06:17;100750.91;;;11.01;79.44
5755;BME280;2902;42.130;24.732;2022-12-18T13:08:55;100758.03;;;11.08;79.69
5755;BME280;2902;42.130;24.732;2022-12-18T13:11:39;100760.50;;;11.10;79.69